Time;durP1;ratioP1;P1;durP2;ratioP2;P2;SDS_P1;SDS_P2;PMS_P1;PMS_P2;Temp;Humidity;BMP_temperature;BMP_pressure;BME280_temperature;BME280_humidity;BME280_pressure;Samples;Min_cycle;Max_cycle;Signal;HPM_P1;HPM_P2
2022/06/20 00:00:43;;;;;;;7.00;2.65;;;;;;;;;;5048583;28;20053;-77
2022/06/20 00:03:14;;;;;;;5.70;2.28;;;;;;;;;;5016249;28;20041;-77
2022/06/20 00:05:39;;;;;;;8.05;2.50;;;;;;;;;;5039735;28;20048;-77
2022/06/20 00:08:05;;;;;;;4.57;2.15;;;;;;;;;;5037380;28;20029;-78
2022/06/20 00:10:30;;;;;;;3.13;1.90;;;;;;;;;;5051373;28;20393;-78
2022/06/20 00:12:56;;;;;;;5.75;2.10;;;;;;;;;;5021344;28;20072;-78
2022/06/20 00:15:25;;;;;;;5.97;2.10;;;;;;;;;;5045436;28;20041;-77
2022/06/20 00:17:51;;;;;;;4.03;2.00;;;;;;;;;;5040959;28;20033;-79
2022/06/20 00:20:16;;;;;;;4.10;1.98;;;;;;;;;;5034308;28;20748;-78
2022/06/20 00:22:42;;;;;;;4.57;2.00;;;;;;;;;;5033570;28;20029;-80
2022/06/20 00:25:07;;;;;;;5.40;1.92;;;;;;;;;;5033822;28;20030;-78
2022/06/20 00:27:33;;;;;;;5.63;2.20;;;;;;;;;;5033463;28;20083;-78
2022/06/20 00:29:58;;;;;;;3.25;1.90;;;;;;;;;;5033568;28;20038;-79
2022/06/20 00:32:24;;;;;;;3.58;1.42;;;;;;;;;;5035137;28;20029;-78
2022/06/20 00:34:49;;;;;;;4.05;1.42;;;;;;;;;;5034897;28;20424;-79
2022/06/20 00:37:16;;;;;;;5.75;1.50;;;;;;;;;;5033148;28;20035;-77
2022/06/20 00:39:42;;;;;;;5.72;1.60;;;;;;;;;;5050102;28;20034;-78
2022/06/20 00:42:08;;;;;;;3.90;1.42;;;;;;;;;;5034482;28;20108;-78
2022/06/20 00:44:35;;;;;;;5.30;1.73;;;;;;;;;;5033904;28;20121;-78
2022/06/20 00:47:02;;;;;;;4.13;1.50;;;;;;;;;;5019061;28;20053;-79
2022/06/20 00:49:34;;;;;;;4.22;1.30;;;;;;;;;;5033774;28;20041;-80
2022/06/20 00:52:19;;;;;;;4.22;1.30;;;;;;;;;;5017126;28;20084;-80
2022/06/20 00:55:10;;;;;;;4.85;1.45;;;;;;;;;;5034829;28;20572;-80
2022/06/20 00:57:53;;;;;;;4.95;1.50;;;;;;;;;;5041299;28;20052;-80
2022/06/20 01:00:20;;;;;;;4.97;1.50;;;;;;;;;;5035910;28;20059;-80
2022/06/20 01:02:46;;;;;;;5.28;1.60;;;;;;;;;;5052792;28;20048;-81
2022/06/20 01:05:14;;;;;;;5.78;1.70;;;;;;;;;;5029459;28;20115;-80
2022/06/20 01:08:06;;;;;;;2.80;1.25;;;;;;;;;;5046371;28;20029;-79
2022/06/20 01:10:34;;;;;;;4.85;1.60;;;;;;;;;;5028213;28;20501;-81
2022/06/20 01:13:01;;;;;;;3.35;1.60;;;;;;;;;;5042773;28;20021;-80
2022/06/20 01:15:28;;;;;;;3.15;1.50;;;;;;;;;;5045064;28;20037;-80
2022/06/20 01:17:53;;;;;;;3.50;1.70;;;;;;;;;;5045962;28;20021;-80
2022/06/20 01:20:21;;;;;;;2.92;1.40;;;;;;;;;;5044236;28;20087;-79
2022/06/20 01:22:49;;;;;;;3.95;1.60;;;;;;;;;;5033425;28;20074;-80
2022/06/20 01:25:17;;;;;;;4.63;1.55;;;;;;;;;;5031311;28;20092;-79
2022/06/20 01:27:43;;;;;;;4.38;1.77;;;;;;;;;;5038672;28;20029;-80
2022/06/20 01:30:09;;;;;;;3.63;1.40;;;;;;;;;;5038906;28;20065;-80
2022/06/20 01:32:35;;;;;;;4.07;1.67;;;;;;;;;;5020039;28;20057;-80
2022/06/20 01:35:00;;;;;;;4.60;1.50;;;;;;;;;;5036622;28;20042;-80
2022/06/20 01:37:26;;;;;;;3.58;1.60;;;;;;;;;;5035154;28;20033;-81
2022/06/20 01:39:53;;;;;;;2.72;1.50;;;;;;;;;;5021116;28;20024;-80
2022/06/20 01:42:18;;;;;;;3.28;1.50;;;;;;;;;;5035742;28;20021;-80
2022/06/20 01:44:45;;;;;;;3.72;1.50;;;;;;;;;;5038084;28;20083;-78
2022/06/20 01:47:11;;;;;;;3.80;1.30;;;;;;;;;;5036123;28;20463;-79
2022/06/20 01:49:36;;;;;;;4.05;1.40;;;;;;;;;;5016070;28;20082;-79
2022/06/20 01:52:13;;;;;;;4.45;1.80;;;;;;;;;;5021057;28;20040;-79
2022/06/20 01:54:40;;;;;;;4.55;1.45;;;;;;;;;;5039251;28;20038;-81
2022/06/20 01:57:06;;;;;;;3.97;1.92;;;;;;;;;;5031526;28;20034;-80
2022/06/20 01:59:39;;;;;;;5.47;1.75;;;;;;;;;;5043516;28;20057;-79
2022/06/20 02:02:05;;;;;;;3.95;1.90;;;;;;;;;;5039171;28;20044;-80
2022/06/20 02:04:31;;;;;;;5.13;1.58;;;;;;;;;;5043511;28;20068;-80
2022/06/20 02:06:57;;;;;;;3.53;1.70;;;;;;;;;;5043558;28;20025;-79
2022/06/20 02:09:22;;;;;;;4.25;1.65;;;;;;;;;;5027220;28;20035;-79
2022/06/20 02:11:48;;;;;;;3.45;1.90;;;;;;;;;;5039897;28;20139;-79
2022/06/20 02:14:18;;;;;;;5.03;1.80;;;;;;;;;;5045185;28;20028;-80
2022/06/20 02:16:44;;;;;;;4.22;1.83;;;;;;;;;;5032430;28;20060;-80
2022/06/20 02:19:11;;;;;;;4.40;1.85;;;;;;;;;;5040834;28;20075;-79
2022/06/20 02:21:37;;;;;;;5.03;1.80;;;;;;;;;;5038854;28;20444;-79
2022/06/20 02:24:04;;;;;;;4.93;2.03;;;;;;;;;;5039912;28;20029;-80
2022/06/20 02:26:29;;;;;;;4.60;2.17;;;;;;;;;;5023914;28;20033;-80
2022/06/20 02:28:57;;;;;;;5.35;1.95;;;;;;;;;;5036313;28;20025;-80
2022/06/20 02:31:23;;;;;;;4.35;1.70;;;;;;;;;;5041434;28;20047;-81
2022/06/20 02:33:48;;;;;;;3.80;1.70;;;;;;;;;;5038417;28;20021;-80
2022/06/20 02:36:14;;;;;;;4.80;2.20;;;;;;;;;;5040134;28;20538;-80
2022/06/20 02:38:39;;;;;;;3.45;2.08;;;;;;;;;;5038339;28;20013;-80
2022/06/20 02:41:05;;;;;;;3.22;2.05;;;;;;;;;;5037876;28;20500;-80
2022/06/20 02:43:37;;;;;;;3.63;1.92;;;;;;;;;;5039390;28;20431;-80
2022/06/20 02:46:03;;;;;;;3.00;2.00;;;;;;;;;;5016414;28;20108;-81
2022/06/20 02:48:29;;;;;;;4.18;1.60;;;;;;;;;;5037053;28;20119;-80
2022/06/20 02:50:55;;;;;;;4.25;1.80;;;;;;;;;;5035756;28;20409;-81
2022/06/20 02:53:23;;;;;;;9.48;1.85;;;;;;;;;;5029205;28;20382;-79
2022/06/20 02:55:49;;;;;;;4.38;1.75;;;;;;;;;;5042983;28;20079;-80
2022/06/20 02:58:21;;;;;;;4.22;1.70;;;;;;;;;;5050887;28;20053;-79
2022/06/20 03:00:51;;;;;;;2.75;1.50;;;;;;;;;;5038462;28;20092;-79
2022/06/20 03:03:23;;;;;;;3.88;1.55;;;;;;;;;;5049040;28;20044;-79
2022/06/20 03:05:48;;;;;;;3.42;1.52;;;;;;;;;;5032035;28;20037;-79
2022/06/20 03:08:14;;;;;;;4.15;1.55;;;;;;;;;;5041994;28;20033;-80
2022/06/20 03:10:41;;;;;;;4.03;1.73;;;;;;;;;;5032388;28;20037;-80
2022/06/20 03:13:06;;;;;;;4.05;1.65;;;;;;;;;;5011615;28;20030;-80
2022/06/20 03:15:33;;;;;;;4.18;1.60;;;;;;;;;;5055020;28;20437;-79
2022/06/20 03:17:58;;;;;;;3.85;1.63;;;;;;;;;;5032200;28;20036;-79
2022/06/20 03:20:25;;;;;;;3.97;1.60;;;;;;;;;;5015076;28;20033;-79
2022/06/20 03:23:06;;;;;;;3.58;2.13;;;;;;;;;;5031265;28;20118;-79
2022/06/20 03:25:32;;;;;;;5.22;1.50;;;;;;;;;;5032466;28;20034;-79
2022/06/20 03:27:57;;;;;;;2.58;1.55;;;;;;;;;;5030992;28;20022;-79
2022/06/20 03:30:26;;;;;;;3.80;1.50;;;;;;;;;;5029098;28;20041;-80
2022/06/20 03:32:51;;;;;;;3.80;1.60;;;;;;;;;;5026889;28;20026;-81
2022/06/20 03:35:17;;;;;;;4.40;3.03;;;;;;;;;;5014323;28;20118;-81
2022/06/20 03:37:42;;;;;;;5.88;3.25;;;;;;;;;;5014588;28;20021;-82
2022/06/20 03:40:08;;;;;;;2.95;1.70;;;;;;;;;;5009850;28;20022;-83
2022/06/20 03:42:33;;;;;;;3.83;1.50;;;;;;;;;;5021184;28;20022;-80
2022/06/20 03:44:59;;;;;;;4.25;1.90;;;;;;;;;;5019944;28;20030;-80
2022/06/20 03:47:31;;;;;;;6.40;1.80;;;;;;;;;;5023650;28;20034;-80
2022/06/20 03:50:04;;;;;;;4.55;2.00;;;;;;;;;;5018100;28;20109;-79
2022/06/20 03:52:50;;;;;;;4.25;1.92;;;;;;;;;;5017289;28;20501;-80
2022/06/20 03:55:17;;;;;;;5.82;2.05;;;;;;;;;;5046115;28;20127;-78
2022/06/20 03:57:53;;;;;;;3.30;1.63;;;;;;;;;;5053598;28;20609;-79
2022/06/20 04:00:22;;;;;;;3.25;1.80;;;;;;;;;;5053322;28;20056;-79
2022/06/20 04:02:49;;;;;;;3.90;1.90;;;;;;;;;;5035007;28;20167;-79
2022/06/20 04:05:18;;;;;;;7.22;2.00;;;;;;;;;;5010254;28;20124;-80
2022/06/20 04:07:45;;;;;;;4.25;1.80;;;;;;;;;;5021300;28;20026;-79
2022/06/20 04:13:01;;;;;;;4.30;1.85;;;;;;;;;;5034460;28;20489;-79
2022/06/20 04:15:32;;;;;;;6.05;2.00;;;;;;;;;;5034067;28;20037;-78
2022/06/20 04:20:54;;;;;;;7.10;1.98;;;;;;;;;;5036452;28;20041;-81
2022/06/20 04:23:40;;;;;;;9.60;2.33;;;;;;;;;;5034286;28;20511;-78
2022/06/20 04:26:24;;;;;;;3.15;1.77;;;;;;;;;;5034729;28;20060;-81
2022/06/20 04:29:13;;;;;;;4.30;1.90;;;;;;;;;;5034257;28;20438;-79
2022/06/20 04:32:08;;;;;;;3.53;1.70;;;;;;;;;;5025451;28;20045;-80
2022/06/20 04:34:43;;;;;;;9.15;2.10;;;;;;;;;;5026477;28;20053;-79
2022/06/20 04:37:20;;;;;;;5.95;2.13;;;;;;;;;;5033029;28;20041;-80
2022/06/20 04:39:45;;;;;;;4.00;1.90;;;;;;;;;;5034394;28;20025;-80
2022/06/20 04:42:13;;;;;;;4.03;1.90;;;;;;;;;;5035350;28;20052;-79
2022/06/20 04:44:45;;;;;;;4.85;2.00;;;;;;;;;;5033692;28;20045;-79
2022/06/20 04:47:21;;;;;;;10.20;7.30;;;;;;;;;;5034733;28;20111;-80
2022/06/20 04:49:46;;;;;;;5.03;2.13;;;;;;;;;;5033800;28;20041;-81
2022/06/20 04:52:12;;;;;;;6.50;1.90;;;;;;;;;;5032683;28;20025;-79
2022/06/20 04:54:38;;;;;;;4.90;1.88;;;;;;;;;;5014887;28;20503;-79
2022/06/20 04:57:03;;;;;;;2.78;1.40;;;;;;;;;;5036518;28;20036;-80
2022/06/20 04:59:29;;;;;;;5.25;1.42;;;;;;;;;;5037402;28;20049;-80
2022/06/20 05:01:56;;;;;;;4.53;1.90;;;;;;;;;;5050244;28;20033;-81
2022/06/20 05:04:23;;;;;;;4.45;1.77;;;;;;;;;;5046955;28;20028;-80
2022/06/20 05:06:49;;;;;;;3.25;1.75;;;;;;;;;;5036862;28;20035;-80
2022/06/20 05:09:47;;;;;;;4.15;1.67;;;;;;;;;;5041186;28;20041;-80
2022/06/20 05:12:19;;;;;;;3.65;1.30;;;;;;;;;;5021037;28;20041;-80
2022/06/20 05:14:53;;;;;;;4.22;1.60;;;;;;;;;;5042047;28;20041;-80
2022/06/20 05:17:21;;;;;;;3.53;1.70;;;;;;;;;;5043551;28;20502;-81
2022/06/20 05:19:46;;;;;;;5.40;2.08;;;;;;;;;;5043058;28;20068;-81
2022/06/20 05:22:14;;;;;;;3.65;1.70;;;;;;;;;;5025224;28;20037;-79
2022/06/20 05:24:40;;;;;;;4.03;1.70;;;;;;;;;;5027641;28;20522;-81
2022/06/20 05:27:08;;;;;;;3.95;1.58;;;;;;;;;;5015554;28;20033;-80
2022/06/20 05:29:34;;;;;;;3.55;1.60;;;;;;;;;;5023198;28;20025;-80
2022/06/20 05:32:05;;;;;;;4.20;1.67;;;;;;;;;;5025481;28;20124;-81
2022/06/20 05:34:35;;;;;;;4.88;1.85;;;;;;;;;;5034568;28;20075;-81
2022/06/20 05:37:05;;;;;;;2.78;1.40;;;;;;;;;;5013143;28;20121;-79
2022/06/20 05:39:49;;;;;;;2.33;1.38;;;;;;;;;;5028497;28;20029;-80
2022/06/20 05:42:15;;;;;;;8.25;2.28;;;;;;;;;;5032220;28;20039;-80
2022/06/20 05:44:40;;;;;;;3.65;1.40;;;;;;;;;;5033951;28;20388;-79
2022/06/20 05:47:08;;;;;;;4.80;2.17;;;;;;;;;;5032465;28;20041;-80
2022/06/20 05:49:35;;;;;;;6.03;2.10;;;;;;;;;;5032749;28;20033;-80
2022/06/20 05:52:01;;;;;;;9.02;3.10;;;;;;;;;;5032770;28;21686;-79
2022/06/20 05:54:27;;;;;;;10.10;2.40;;;;;;;;;;5036922;28;20539;-80
2022/06/20 05:56:58;;;;;;;5.97;2.00;;;;;;;;;;5053175;28;20124;-81
2022/06/20 05:59:31;;;;;;;10.15;2.28;;;;;;;;;;5047755;28;20106;-80
2022/06/20 06:02:01;;;;;;;4.07;1.90;;;;;;;;;;5042812;28;20033;-80
2022/06/20 06:04:37;;;;;;;4.55;1.80;;;;;;;;;;5033095;28;20040;-81
2022/06/20 06:07:05;;;;;;;7.45;2.42;;;;;;;;;;5016068;28;20087;-80
2022/06/20 06:09:52;;;;;;;4.68;2.10;;;;;;;;;;5044192;28;20075;-81
2022/06/20 06:12:37;;;;;;;4.18;1.80;;;;;;;;;;5033194;28;20040;-79
2022/06/20 06:15:11;;;;;;;5.13;1.92;;;;;;;;;;5041657;28;20052;-79
2022/06/20 06:17:41;;;;;;;5.03;1.80;;;;;;;;;;5026251;28;20032;-79
2022/06/20 06:20:11;;;;;;;3.25;1.42;;;;;;;;;;5033092;28;20041;-79
2022/06/20 06:22:38;;;;;;;5.15;1.50;;;;;;;;;;5049704;28;20032;-79
2022/06/20 06:25:24;;;;;;;2.90;1.70;;;;;;;;;;5034711;28;20103;-80
2022/06/20 06:27:50;;;;;;;4.03;1.40;;;;;;;;;;5032803;28;20041;-80
2022/06/20 06:30:29;;;;;;;4.55;1.70;;;;;;;;;;5032180;28;20037;-80
2022/06/20 06:32:55;;;;;;;4.32;1.65;;;;;;;;;;5032311;28;20487;-80
2022/06/20 06:35:22;;;;;;;4.88;1.90;;;;;;;;;;5032097;28;20044;-83
2022/06/20 06:38:01;;;;;;;3.45;1.60;;;;;;;;;;4996408;28;20517;-82
2022/06/20 06:40:53;;;;;;;3.25;1.70;;;;;;;;;;5012019;28;20096;-80
2022/06/20 06:43:22;;;;;;;6.00;2.78;;;;;;;;;;5026781;28;20459;-79
2022/06/20 06:45:48;;;;;;;5.50;2.00;;;;;;;;;;5033499;28;20445;-80
2022/06/20 06:48:17;;;;;;;5.03;1.95;;;;;;;;;;5032037;28;20045;-81
2022/06/20 06:50:54;;;;;;;3.35;1.75;;;;;;;;;;5015489;28;20025;-82
2022/06/20 06:53:22;;;;;;;3.55;1.83;;;;;;;;;;5032208;28;20056;-80
2022/06/20 06:55:51;;;;;;;5.68;2.08;;;;;;;;;;5046692;28;20115;-82
2022/06/20 06:58:24;;;;;;;3.33;1.67;;;;;;;;;;5023426;28;20037;-81
2022/06/20 07:00:51;;;;;;;3.55;1.95;;;;;;;;;;5028698;28;20103;-81
2022/06/20 07:03:18;;;;;;;4.18;1.60;;;;;;;;;;5047078;28;20064;-80
2022/06/20 07:06:03;;;;;;;4.05;2.25;;;;;;;;;;5031638;28;20061;-81
2022/06/20 07:08:31;;;;;;;3.13;1.90;;;;;;;;;;5032031;28;20041;-80
2022/06/20 07:11:06;;;;;;;2.97;1.85;;;;;;;;;;5032654;28;20113;-80
2022/06/20 07:13:34;;;;;;;3.83;2.00;;;;;;;;;;5032783;28;20025;-80
2022/06/20 07:16:02;;;;;;;3.42;2.17;;;;;;;;;;5032031;28;20029;-82
2022/06/20 07:18:30;;;;;;;3.75;1.90;;;;;;;;;;5032946;28;20048;-80
2022/06/20 07:20:56;;;;;;;5.10;1.90;;;;;;;;;;5029551;28;20026;-80
2022/06/20 07:23:21;;;;;;;5.10;2.00;;;;;;;;;;5031840;28;20040;-80
2022/06/20 07:25:48;;;;;;;7.15;2.90;;;;;;;;;;5031524;28;20086;-80
2022/06/20 07:28:15;;;;;;;10.57;2.72;;;;;;;;;;5031453;28;20037;-80
2022/06/20 07:30:45;;;;;;;14.23;3.20;;;;;;;;;;5032714;28;20035;-81
2022/06/20 07:33:17;;;;;;;14.10;2.97;;;;;;;;;;5030769;28;20029;-81
2022/06/20 07:35:43;;;;;;;10.45;2.85;;;;;;;;;;5036111;28;20060;-80
2022/06/20 07:38:10;;;;;;;8.93;3.05;;;;;;;;;;5036831;28;20025;-80
2022/06/20 07:40:36;;;;;;;7.85;2.95;;;;;;;;;;5032761;28;20025;-81
2022/06/20 07:43:08;;;;;;;8.82;3.30;;;;;;;;;;5032930;28;20025;-80
2022/06/20 07:45:46;;;;;;;7.35;3.38;;;;;;;;;;5013031;28;20033;-80
2022/06/20 07:48:13;;;;;;;6.82;3.17;;;;;;;;;;5038766;28;20037;-81
2022/06/20 07:50:42;;;;;;;9.68;4.35;;;;;;;;;;5020686;28;20014;-81
2022/06/20 07:53:11;;;;;;;7.90;4.25;;;;;;;;;;5003555;28;20489;-81
2022/06/20 07:55:40;;;;;;;7.00;3.70;;;;;;;;;;5039229;28;20025;-80
2022/06/20 07:58:17;;;;;;;7.53;4.55;;;;;;;;;;5021485;28;20041;-82
2022/06/20 08:00:44;;;;;;;5.85;3.83;;;;;;;;;;5033171;28;20523;-81
2022/06/20 08:03:28;;;;;;;11.02;4.47;;;;;;;;;;5033407;28;20068;-83
2022/06/20 08:05:58;;;;;;;4.60;3.90;;;;;;;;;;5048907;28;20532;-82
2022/06/20 08:08:29;;;;;;;5.63;3.17;;;;;;;;;;5050341;28;20037;-82
2022/06/20 08:10:54;;;;;;;6.38;4.43;;;;;;;;;;5017332;28;20522;-81
2022/06/20 08:13:31;;;;;;;7.50;4.03;;;;;;;;;;5050156;28;20029;-80
2022/06/20 08:16:02;;;;;;;5.28;3.95;;;;;;;;;;5018091;28;20037;-79
2022/06/20 08:18:28;;;;;;;6.25;4.00;;;;;;;;;;5050699;28;20037;-80
2022/06/20 08:20:56;;;;;;;5.50;3.65;;;;;;;;;;5050891;28;20441;-82
2022/06/20 08:23:32;;;;;;;5.00;3.30;;;;;;;;;;5049618;28;20025;-81
2022/06/20 08:26:00;;;;;;;7.40;4.15;;;;;;;;;;5050933;28;20408;-82
2022/06/20 08:28:28;;;;;;;7.28;3.85;;;;;;;;;;5053370;28;20063;-79
2022/06/20 08:31:04;;;;;;;6.47;3.58;;;;;;;;;;5038123;28;20492;-82
2022/06/20 08:33:41;;;;;;;4.35;3.47;;;;;;;;;;5053488;28;20069;-81
2022/06/20 08:36:10;;;;;;;10.23;4.03;;;;;;;;;;5037048;28;20062;-85
2022/06/20 08:38:54;;;;;;;7.45;3.80;;;;;;;;;;5054040;28;20017;-80
2022/06/20 08:41:38;;;;;;;5.82;4.13;;;;;;;;;;5044061;28;20035;-81
2022/06/20 08:44:22;;;;;;;4.90;3.70;;;;;;;;;;5050961;28;20458;-80
2022/06/20 08:46:47;;;;;;;5.15;3.30;;;;;;;;;;5050361;28;20495;-81
2022/06/20 08:49:16;;;;;;;5.45;3.00;;;;;;;;;;5039649;28;20028;-82
2022/06/20 08:52:06;;;;;;;6.03;3.20;;;;;;;;;;5051495;28;20041;-81
2022/06/20 08:54:35;;;;;;;4.88;2.45;;;;;;;;;;5054066;28;20033;-84
2022/06/20 08:57:06;;;;;;;3.90;2.55;;;;;;;;;;5053876;28;20496;-83
2022/06/20 08:59:34;;;;;;;4.53;2.25;;;;;;;;;;5053899;28;20056;-81
2022/06/20 09:02:09;;;;;;;5.85;2.53;;;;;;;;;;5054696;28;20404;-85
2022/06/20 09:04:44;;;;;;;4.38;2.03;;;;;;;;;;5052061;28;20029;-81
2022/06/20 09:07:22;;;;;;;3.58;2.10;;;;;;;;;;5053390;28;20040;-81
2022/06/20 09:09:54;;;;;;;3.70;2.10;;;;;;;;;;5035211;28;20036;-84
2022/06/20 09:12:38;;;;;;;5.65;1.75;;;;;;;;;;5055118;28;20491;-83
2022/06/20 09:15:08;;;;;;;2.80;1.83;;;;;;;;;;5053582;28;20029;-81
2022/06/20 09:17:39;;;;;;;3.13;2.00;;;;;;;;;;5036418;28;20025;-81
2022/06/20 09:20:20;;;;;;;2.72;1.50;;;;;;;;;;5053048;28;20416;-82
2022/06/20 09:22:54;;;;;;;3.03;1.75;;;;;;;;;;5053051;28;20439;-82
2022/06/20 09:25:24;;;;;;;2.63;1.65;;;;;;;;;;5046832;28;20059;-82
2022/06/20 09:27:53;;;;;;;2.15;1.40;;;;;;;;;;5030006;28;20032;-81
2022/06/20 09:30:19;;;;;;;3.88;1.80;;;;;;;;;;5035014;28;20131;-80
2022/06/20 09:32:57;;;;;;;4.88;2.60;;;;;;;;;;5052789;28;20048;-81
2022/06/20 09:35:30;;;;;;;4.00;1.30;;;;;;;;;;5051713;28;20040;-80
2022/06/20 09:38:02;;;;;;;4.20;2.83;;;;;;;;;;5053498;28;20044;-80
2022/06/20 09:40:46;;;;;;;4.13;1.58;;;;;;;;;;5049702;28;20041;-80
2022/06/20 09:43:15;;;;;;;3.65;1.45;;;;;;;;;;5045018;28;20095;-85
2022/06/20 09:45:43;;;;;;;2.70;1.15;;;;;;;;;;5034601;28;20036;-81
2022/06/20 09:48:21;;;;;;;3.17;1.23;;;;;;;;;;5041924;28;20033;-82
2022/06/20 09:50:52;;;;;;;3.30;1.50;;;;;;;;;;5033728;28;20507;-81
2022/06/20 09:53:40;;;;;;;2.35;1.25;;;;;;;;;;5040888;28;20037;-85
2022/06/20 09:56:18;;;;;;;4.85;1.40;;;;;;;;;;5017922;28;20563;-82
2022/06/20 09:58:53;;;;;;;3.20;1.25;;;;;;;;;;5051982;28;20041;-81
2022/06/20 10:01:30;;;;;;;4.50;1.45;;;;;;;;;;5051138;28;20400;-81
2022/06/20 10:04:01;;;;;;;3.47;1.02;;;;;;;;;;5040148;28;20025;-81
2022/06/20 10:06:30;;;;;;;6.43;4.65;;;;;;;;;;5051002;28;20057;-81
2022/06/20 10:09:04;;;;;;;3.33;1.50;;;;;;;;;;5053288;28;20075;-83
2022/06/20 10:11:44;;;;;;;2.35;1.40;;;;;;;;;;5034521;28;20528;-79
2022/06/20 10:14:29;;;;;;;3.42;1.35;;;;;;;;;;5043702;28;20075;-82
2022/06/20 10:16:59;;;;;;;4.85;1.95;;;;;;;;;;5037991;28;20045;-81
2022/06/20 10:19:29;;;;;;;5.70;1.60;;;;;;;;;;5032599;28;20508;-82
2022/06/20 10:22:03;;;;;;;4.45;1.52;;;;;;;;;;5048839;28;20025;-81
2022/06/20 10:24:47;;;;;;;2.63;1.10;;;;;;;;;;5049702;28;20036;-82
2022/06/20 10:27:20;;;;;;;3.70;1.30;;;;;;;;;;5051148;28;20125;-82
2022/06/20 10:29:59;;;;;;;2.95;1.10;;;;;;;;;;5049947;28;20488;-81
2022/06/20 10:32:43;;;;;;;3.08;1.20;;;;;;;;;;5028844;28;20479;-81
2022/06/20 10:35:16;;;;;;;2.88;1.10;;;;;;;;;;5046579;28;20033;-81
2022/06/20 10:38:00;;;;;;;3.28;1.20;;;;;;;;;;5049398;28;20519;-81
2022/06/20 10:40:44;;;;;;;5.07;1.10;;;;;;;;;;5044576;28;20029;-81
2022/06/20 10:43:10;;;;;;;4.75;1.17;;;;;;;;;;5043533;28;20377;-81
2022/06/20 10:45:36;;;;;;;3.40;1.48;;;;;;;;;;5048137;28;20017;-80
2022/06/20 10:48:04;;;;;;;4.60;1.02;;;;;;;;;;5050581;28;20064;-81
2022/06/20 10:50:32;;;;;;;4.72;1.35;;;;;;;;;;5035930;28;20028;-80
2022/06/20 10:53:04;;;;;;;2.67;0.90;;;;;;;;;;5041623;28;20488;-81
2022/06/20 10:55:29;;;;;;;3.83;1.52;;;;;;;;;;5044052;28;20404;-80
2022/06/20 10:58:04;;;;;;;3.53;1.50;;;;;;;;;;5045176;28;20025;-80
2022/06/20 11:00:32;;;;;;;3.43;1.30;;;;;;;;;;5043604;28;20051;-80
2022/06/20 11:03:10;;;;;;;2.97;1.40;;;;;;;;;;5049771;28;20267;-81
2022/06/20 11:05:39;;;;;;;2.10;0.82;;;;;;;;;;5051632;28;20442;-82
2022/06/20 11:08:24;;;;;;;4.57;0.80;;;;;;;;;;5050527;28;20453;-81
2022/06/20 11:10:58;;;;;;;1.67;0.80;;;;;;;;;;5052046;28;20041;-79
2022/06/20 11:13:42;;;;;;;3.20;0.90;;;;;;;;;;5047469;28;20034;-81
2022/06/20 11:16:20;;;;;;;2.63;0.80;;;;;;;;;;5044101;28;20044;-81
2022/06/20 11:18:59;;;;;;;3.47;2.05;;;;;;;;;;5028597;28;20029;-82
2022/06/20 11:21:43;;;;;;;2.80;1.40;;;;;;;;;;5043151;28;20045;-81
2022/06/20 11:24:14;;;;;;;3.85;1.20;;;;;;;;;;5048831;28;20067;-81
2022/06/20 11:26:48;;;;;;;1.83;0.90;;;;;;;;;;5036294;28;20040;-80
2022/06/20 11:29:13;;;;;;;1.52;0.73;;;;;;;;;;5022668;28;20041;-82
2022/06/20 11:31:49;;;;;;;4.13;1.00;;;;;;;;;;5042555;28;20025;-81
2022/06/20 11:34:18;;;;;;;2.75;0.80;;;;;;;;;;5029157;28;20499;-81
2022/06/20 11:36:43;;;;;;;2.58;0.85;;;;;;;;;;5045448;28;20036;-82
2022/06/20 11:39:09;;;;;;;2.95;1.13;;;;;;;;;;5062685;28;20045;-83
2022/06/20 11:41:41;;;;;;;2.13;1.05;;;;;;;;;;5035927;28;20120;-81
2022/06/20 11:44:07;;;;;;;2.88;1.10;;;;;;;;;;5028554;28;20087;-82
2022/06/20 11:46:38;;;;;;;4.28;1.00;;;;;;;;;;5047194;28;20021;-82
2022/06/20 11:49:16;;;;;;;2.20;0.95;;;;;;;;;;5040191;28;20048;-81
2022/06/20 11:52:00;;;;;;;2.33;1.00;;;;;;;;;;5047267;28;20037;-82
2022/06/20 11:54:27;;;;;;;2.00;0.93;;;;;;;;;;5031852;28;20511;-80
2022/06/20 11:56:54;;;;;;;4.57;2.17;;;;;;;;;;5041068;28;20057;-82
2022/06/20 11:59:23;;;;;;;5.30;1.55;;;;;;;;;;5014226;28;20083;-81
2022/06/20 12:02:01;;;;;;;3.40;1.15;;;;;;;;;;5025291;28;20519;-82
2022/06/20 12:04:36;;;;;;;2.72;0.93;;;;;;;;;;5041100;28;20576;-83
2022/06/20 12:07:13;;;;;;;2.92;1.13;;;;;;;;;;5021170;28;20032;-82
2022/06/20 12:09:56;;;;;;;3.08;0.90;;;;;;;;;;5054128;28;20446;-80
2022/06/20 12:12:37;;;;;;;2.75;1.17;;;;;;;;;;5055284;28;20041;-81
2022/06/20 12:15:16;;;;;;;2.47;0.90;;;;;;;;;;5035818;28;20048;-81
2022/06/20 12:17:42;;;;;;;5.78;1.20;;;;;;;;;;5046189;28;20032;-80
2022/06/20 12:23:21;;;;;;;4.95;1.30;;;;;;;;;;5048861;28;20033;-84
2022/06/20 12:26:00;;;;;;;4.35;1.27;;;;;;;;;;5032265;28;20503;-83
2022/06/20 12:28:27;;;;;;;3.33;1.13;;;;;;;;;;5045991;28;20183;-82
2022/06/20 12:30:58;;;;;;;4.88;1.38;;;;;;;;;;5002419;28;20025;-82
2022/06/20 12:33:24;;;;;;;3.63;1.50;;;;;;;;;;5022839;28;20560;-82
2022/06/20 12:35:55;;;;;;;3.67;1.27;;;;;;;;;;5060814;28;20094;-81
2022/06/20 12:38:33;;;;;;;7.13;1.48;;;;;;;;;;5047286;28;20037;-81
2022/06/20 12:40:58;;;;;;;3.80;1.17;;;;;;;;;;5046650;28;20032;-82
2022/06/20 12:43:28;;;;;;;4.47;1.38;;;;;;;;;;5046564;28;20028;-80
2022/06/20 12:46:14;;;;;;;4.35;1.70;;;;;;;;;;5044814;28;20033;-82
2022/06/20 12:48:58;;;;;;;4.10;1.20;;;;;;;;;;5034563;28;20037;-81
2022/06/20 12:51:23;;;;;;;4.03;1.20;;;;;;;;;;5048645;28;20029;-81
2022/06/20 12:53:49;;;;;;;4.40;1.10;;;;;;;;;;5037072;28;20374;-81
2022/06/20 12:56:33;;;;;;;3.40;1.13;;;;;;;;;;5048390;28;20042;-82
2022/06/20 12:59:07;;;;;;;6.60;1.50;;;;;;;;;;5046796;28;20057;-81
2022/06/20 13:01:33;;;;;;;3.42;1.30;;;;;;;;;;5029071;28;20045;-80
2022/06/20 13:04:11;;;;;;;4.40;1.30;;;;;;;;;;5045889;28;20522;-81
2022/06/20 13:06:39;;;;;;;3.42;1.30;;;;;;;;;;5048288;28;20403;-82
2022/06/20 13:09:08;;;;;;;3.70;1.10;;;;;;;;;;5051770;28;20029;-81
2022/06/20 13:11:46;;;;;;;4.07;1.50;;;;;;;;;;5049837;28;20116;-80
2022/06/20 13:14:23;;;;;;;4.50;1.20;;;;;;;;;;5050426;28;20036;-81
2022/06/20 13:16:49;;;;;;;6.85;1.73;;;;;;;;;;5050116;28;20403;-81
2022/06/20 13:19:25;;;;;;;3.65;1.50;;;;;;;;;;5052549;28;20036;-84
2022/06/20 13:21:57;;;;;;;3.85;1.13;;;;;;;;;;5045848;28;20035;-81
2022/06/20 13:24:39;;;;;;;4.20;1.15;;;;;;;;;;5021286;28;20052;-82
2022/06/20 13:27:08;;;;;;;4.07;1.30;;;;;;;;;;5060816;28;20576;-81
2022/06/20 13:29:52;;;;;;;5.10;1.40;;;;;;;;;;5016607;28;20036;-81
2022/06/20 13:32:18;;;;;;;3.70;1.30;;;;;;;;;;5042797;28;20037;-83
2022/06/20 13:34:52;;;;;;;3.33;1.48;;;;;;;;;;5043502;28;20036;-81
2022/06/20 13:37:21;;;;;;;5.25;1.58;;;;;;;;;;5034578;28;20041;-82
2022/06/20 13:39:47;;;;;;;5.28;1.33;;;;;;;;;;5042541;28;20025;-81
2022/06/20 13:42:28;;;;;;;4.72;1.70;;;;;;;;;;5043236;28;20104;-81
2022/06/20 13:45:12;;;;;;;4.88;1.20;;;;;;;;;;5050283;28;20556;-81
2022/06/20 13:47:39;;;;;;;4.38;1.40;;;;;;;;;;5039214;28;20044;-80
2022/06/20 13:50:23;;;;;;;4.20;1.50;;;;;;;;;;5048395;28;20032;-79
2022/06/20 13:52:51;;;;;;;3.58;1.60;;;;;;;;;;5043593;28;20504;-81
2022/06/20 13:55:19;;;;;;;5.07;1.38;;;;;;;;;;5044134;28;20036;-79
2022/06/20 13:57:46;;;;;;;7.90;1.40;;;;;;;;;;5052693;28;20040;-80
2022/06/20 14:00:22;;;;;;;5.78;1.42;;;;;;;;;;5053610;28;20103;-80
2022/06/20 14:03:07;;;;;;;5.00;1.63;;;;;;;;;;5052688;28;20041;-82
2022/06/20 14:05:32;;;;;;;6.32;1.70;;;;;;;;;;5053549;28;20447;-81
2022/06/20 14:08:17;;;;;;;5.57;1.50;;;;;;;;;;5051008;28;20033;-80
2022/06/20 14:10:44;;;;;;;4.95;1.42;;;;;;;;;;5052159;28;20158;-80
2022/06/20 14:13:15;;;;;;;5.55;1.50;;;;;;;;;;5051383;28;20029;-81
2022/06/20 14:15:41;;;;;;;8.55;1.58;;;;;;;;;;5053147;28;20044;-81
2022/06/20 14:18:14;;;;;;;5.95;1.98;;;;;;;;;;5048270;28;20029;-81
2022/06/20 14:20:46;;;;;;;3.47;1.52;;;;;;;;;;5042246;28;20551;-81
2022/06/20 14:23:15;;;;;;;6.93;1.40;;;;;;;;;;5051599;28;20067;-81
2022/06/20 14:25:43;;;;;;;4.93;1.80;;;;;;;;;;5052652;28;20052;-81
2022/06/20 14:28:22;;;;;;;5.93;1.52;;;;;;;;;;5050527;28;20036;-80
2022/06/20 14:30:52;;;;;;;4.68;1.92;;;;;;;;;;5053153;28;20036;-82
2022/06/20 14:33:29;;;;;;;4.55;1.65;;;;;;;;;;5050879;28;20032;-81
2022/06/20 14:36:04;;;;;;;5.03;1.65;;;;;;;;;;5051631;28;20550;-80
2022/06/20 14:38:31;;;;;;;6.22;2.15;;;;;;;;;;5038369;28;20029;-80
2022/06/20 14:40:59;;;;;;;5.22;1.77;;;;;;;;;;5052058;28;20025;-81
2022/06/20 14:43:24;;;;;;;5.40;1.63;;;;;;;;;;5050762;28;20120;-81
2022/06/20 14:45:53;;;;;;;5.70;1.80;;;;;;;;;;5046011;28;20059;-83
2022/06/20 14:48:24;;;;;;;7.57;2.08;;;;;;;;;;5045672;28;20036;-83
2022/06/20 14:50:54;;;;;;;6.53;1.77;;;;;;;;;;5038627;28;20108;-81
2022/06/20 14:53:34;;;;;;;4.13;1.60;;;;;;;;;;5020653;28;20125;-83
2022/06/20 14:56:03;;;;;;;6.30;1.80;;;;;;;;;;5047275;28;20021;-85
2022/06/20 14:58:37;;;;;;;4.55;1.85;;;;;;;;;;5027268;28;20499;-82
2022/06/20 15:01:21;;;;;;;8.95;2.10;;;;;;;;;;5042910;28;20111;-83
2022/06/20 15:03:53;;;;;;;5.45;1.98;;;;;;;;;;5032056;28;20158;-83
2022/06/20 15:06:22;;;;;;;6.43;1.95;;;;;;;;;;5045471;28;20060;-85
2022/06/20 15:09:06;;;;;;;4.60;1.73;;;;;;;;;;5049704;28;20115;-85
2022/06/20 15:11:33;;;;;;;9.15;2.03;;;;;;;;;;5048155;28;20450;-84
2022/06/20 15:14:25;;;;;;;8.40;2.00;;;;;;;;;;5025956;28;20040;-84
2022/06/20 15:16:52;;;;;;;4.68;1.80;;;;;;;;;;5034236;28;20578;-82